Time;durP1;ratioP1;P1;durP2;ratioP2;P2;SDS_P1;SDS_P2;PMS_P1;PMS_P2;Temp;Humidity;BMP_temperature;BMP_pressure;BME280_temperature;BME280_humidity;BME280_pressure;Samples;Min_cycle;Max_cycle;Signal;HPM_P1;HPM_P2
2022/09/04 00:00:07;;;;;;;;;;;;;;;21.76;49.52;100830.25;5173056;28;20121;-80
2022/09/04 00:02:40;;;;;;;0.38;0.38;;;;;;;21.76;49.15;100830.25;5156017;28;19927;-81
2022/09/04 00:05:25;;;;;;;0.47;0.47;;;;;;;21.67;49.38;100834.44;5143316;28;20035;-80
2022/09/04 00:08:42;;;;;;;0.95;0.82;;;;;;;21.67;49.13;100832.63;5150451;28;20050;-81
2022/09/04 00:11:19;;;;;;;0.50;0.50;;;;;;;21.65;49.35;100828.38;5171341;28;20043;-80
2022/09/04 00:14:00;;;;;;;1.58;1.05;;;;;;;21.61;49.56;100838.41;5139113;28;20515;-82
2022/09/04 00:16:49;;;;;;;0.65;0.65;;;;;;;21.59;49.64;100837.66;5095344;29;20039;-81
2022/09/04 00:19:44;;;;;;;0.40;0.40;;;;;;;21.61;49.81;100840.22;5139964;28;20102;-82
2022/09/04 00:22:29;;;;;;;0.52;0.40;;;;;;;21.58;49.62;100840.44;5136985;28;20771;-81
2022/09/04 00:25:19;;;;;;;0.50;0.50;;;;;;;21.53;49.62;100851.41;5176302;28;20027;-81
2022/09/04 00:27:59;;;;;;;0.70;0.68;;;;;;;21.51;49.71;100854.19;5139261;28;20054;-81
2022/09/04 00:30:32;;;;;;;0.50;0.50;;;;;;;21.50;49.57;100855.16;5127048;28;20483;-82
2022/09/04 00:33:21;;;;;;;0.30;0.30;;;;;;;21.49;49.96;100852.59;5128050;28;20039;-80
2022/09/04 00:35:58;;;;;;;0.50;0.50;;;;;;;21.43;49.81;100853.03;5144454;28;20027;-81
2022/09/04 00:38:43;;;;;;;0.52;0.52;;;;;;;21.38;49.73;100867.56;5137560;28;20097;-81
2022/09/04 00:41:20;;;;;;;0.50;0.50;;;;;;;21.32;49.67;100862.66;5163256;28;20034;-80
2022/09/04 00:43:58;;;;;;;0.43;0.43;;;;;;;21.31;50.10;100870.78;5117519;28;20050;-80
2022/09/04 00:46:38;;;;;;;0.60;0.60;;;;;;;21.26;50.12;100871.09;5149601;28;20039;-82
2022/09/04 00:50:10;;;;;;;0.55;0.40;;;;;;;21.25;50.36;100872.06;5139401;28;20051;-81
2022/09/04 00:53:05;;;;;;;0.80;0.80;;;;;;;21.19;50.05;100867.16;5118128;28;20070;-81
2022/09/04 00:56:03;;;;;;;0.80;0.80;;;;;;;21.16;50.04;100873.53;5155652;28;20107;-81
2022/09/04 00:59:11;;;;;;;0.60;0.60;;;;;;;21.15;50.46;100877.19;5109932;28;20071;-81
2022/09/04 01:01:43;;;;;;;0.40;0.40;;;;;;;21.09;51.05;100876.75;5127856;28;20090;-81
2022/09/04 01:04:26;;;;;;;0.40;0.40;;;;;;;21.11;50.66;100885.50;5136064;28;20043;-82
2022/09/04 01:07:09;;;;;;;0.45;0.45;;;;;;;21.09;50.32;100876.75;5129218;28;20089;-80
2022/09/04 01:09:56;;;;;;;0.40;0.40;;;;;;;21.03;50.76;100886.03;5120250;28;20094;-81
2022/09/04 01:12:58;;;;;;;0.65;0.65;;;;;;;21.04;51.33;100880.56;5128511;28;20050;-81
2022/09/04 01:15:43;;;;;;;0.65;0.65;;;;;;;20.95;51.12;100886.53;5155945;28;20145;-82
2022/09/04 01:18:29;;;;;;;0.40;0.40;;;;;;;20.94;50.83;100891.97;5132327;28;20055;-81
2022/09/04 01:21:32;;;;;;;0.43;0.43;;;;;;;20.92;51.19;100892.94;5139079;28;20031;-81
2022/09/04 01:24:24;;;;;;;0.50;0.50;;;;;;;20.90;51.14;100894.88;5151867;28;20035;-81
2022/09/04 01:27:21;;;;;;;0.57;0.57;;;;;;;20.90;50.68;100899.34;5109978;28;20039;-81
2022/09/04 01:30:06;;;;;;;0.65;0.65;;;;;;;20.93;50.84;100899.16;5146560;28;20038;-80
2022/09/04 01:33:07;;;;;;;1.35;1.02;;;;;;;20.87;50.98;100910.22;5128874;28;20043;-81
2022/09/04 01:35:54;;;;;;;0.80;0.80;;;;;;;20.87;50.76;100915.53;5134561;28;20027;-81
2022/09/04 01:38:32;;;;;;;0.45;0.45;;;;;;;20.80;51.04;100909.78;5147240;28;20044;-81
2022/09/04 01:41:15;;;;;;;0.45;0.45;;;;;;;20.87;51.10;100920.88;5140462;28;20523;-80
2022/09/04 01:43:45;;;;;;;1.00;0.90;;;;;;;20.81;51.48;100914.16;5112523;28;20074;-81
2022/09/04 01:46:38;;;;;;;0.40;0.40;;;;;;;20.81;51.00;100921.28;5132231;28;20469;-81
2022/09/04 01:49:20;;;;;;;0.98;0.88;;;;;;;20.75;51.47;100923.44;5160002;28;20046;-81
2022/09/04 01:51:57;;;;;;;0.60;0.60;;;;;;;20.74;51.26;100920.88;5159058;28;20180;-80
2022/09/04 01:54:46;;;;;;;1.17;1.10;;;;;;;20.77;51.64;100923.31;5137173;28;20112;-80
2022/09/04 01:57:35;;;;;;;0.50;0.50;;;;;;;20.79;51.77;100917.88;5169609;28;20157;-81
2022/09/04 02:00:24;;;;;;;0.45;0.45;;;;;;;20.70;51.62;100920.16;5165869;28;20061;-82
2022/09/04 02:03:01;;;;;;;1.77;1.63;;;;;;;20.67;51.72;100919.50;5135530;28;20047;-81
2022/09/04 02:05:50;;;;;;;0.30;0.30;;;;;;;20.62;51.95;100924.31;5129148;28;20038;-82
2022/09/04 02:08:46;;;;;;;0.70;0.70;;;;;;;20.65;51.85;100922.28;5141743;28;20050;-80
2022/09/04 02:11:27;;;;;;;2.13;1.02;;;;;;;20.60;52.29;100924.41;5120537;28;20027;-81
2022/09/04 02:14:08;;;;;;;0.73;0.73;;;;;;;20.57;52.11;100916.63;5150135;28;20043;-81
2022/09/04 02:16:52;;;;;;;1.17;1.05;;;;;;;20.55;51.87;100926.50;5165784;28;20035;-83
2022/09/04 02:19:35;;;;;;;1.00;0.70;;;;;;;20.50;52.39;100923.31;5121919;28;20049;-82
2022/09/04 02:22:27;;;;;;;2.45;1.42;;;;;;;20.49;51.97;100925.13;5157333;28;20050;-82
2022/09/04 02:25:01;;;;;;;0.90;0.82;;;;;;;20.54;52.19;100932.78;5169099;28;20085;-80
2022/09/04 02:27:44;;;;;;;0.52;0.52;;;;;;;20.49;52.46;100929.59;5156705;28;20520;-81
2022/09/04 02:30:17;;;;;;;0.47;0.47;;;;;;;20.45;52.23;100929.78;5140908;28;20502;-82
2022/09/04 02:33:34;;;;;;;1.02;1.00;;;;;;;20.42;52.19;100937.13;5154529;28;20058;-81
2022/09/04 02:36:22;;;;;;;0.30;0.30;;;;;;;20.41;52.09;100933.63;5119134;28;20027;-83
2022/09/04 02:39:15;;;;;;;0.50;0.50;;;;;;;20.47;52.31;100942.16;5126262;28;20047;-81
2022/09/04 02:41:57;;;;;;;0.93;0.70;;;;;;;20.43;52.23;100939.72;5112512;28;20039;-80
2022/09/04 02:44:30;;;;;;;0.73;0.73;;;;;;;20.36;52.66;100941.06;5123286;28;20050;-81
2022/09/04 02:47:11;;;;;;;1.70;0.98;;;;;;;20.39;52.09;100934.69;5141641;28;20035;-81
2022/09/04 02:49:57;;;;;;;0.63;0.63;;;;;;;20.37;52.20;100939.25;5148457;28;20035;-81
2022/09/04 02:52:32;;;;;;;0.43;0.40;;;;;;;20.32;52.17;100947.53;5137887;28;20107;-81
2022/09/04 02:55:22;;;;;;;0.85;0.85;;;;;;;20.30;52.26;100938.78;5143207;28;20281;-81
2022/09/04 02:58:10;;;;;;;0.32;0.32;;;;;;;20.30;52.22;100941.44;5161918;28;20046;-82
2022/09/04 03:00:53;;;;;;;0.90;0.90;;;;;;;20.30;52.46;100938.78;5117514;28;20106;-81
2022/09/04 03:03:41;;;;;;;0.55;0.55;;;;;;;20.27;52.54;100944.31;5137395;28;20038;-81
2022/09/04 03:06:47;;;;;;;0.45;0.45;;;;;;;20.19;52.61;100941.31;5150636;28;20431;-81
2022/09/04 03:09:31;;;;;;;0.60;0.60;;;;;;;20.15;52.63;100943.31;5112559;28;20441;-81
2022/09/04 03:12:27;;;;;;;0.70;0.70;;;;;;;20.15;52.63;100945.09;5085648;28;20095;-81
2022/09/04 03:15:12;;;;;;;0.40;0.40;;;;;;;20.15;52.66;100945.97;5122714;28;20034;-81
2022/09/04 03:17:48;;;;;;;1.45;1.30;;;;;;;20.11;52.69;100949.78;5167385;28;20042;-82
2022/09/04 03:20:32;;;;;;;1.13;0.57;;;;;;;20.11;52.77;100950.66;5143085;28;20039;-81
2022/09/04 03:23:19;;;;;;;1.02;0.93;;;;;;;20.10;52.76;100953.38;5157462;28;20122;-82
2022/09/04 03:26:09;;;;;;;1.05;1.02;;;;;;;20.05;52.50;100956.34;5101653;28;20103;-82
2022/09/04 03:28:44;;;;;;;14.45;0.75;;;;;;;20.00;52.73;100965.59;5136854;28;20043;-83
2022/09/04 03:31:30;;;;;;;0.82;0.82;;;;;;;19.99;52.77;100963.88;5145294;28;20053;-82
2022/09/04 03:34:25;;;;;;;0.43;0.43;;;;;;;19.98;52.79;100963.00;5160059;28;20062;-79
2022/09/04 03:37:01;;;;;;;0.50;0.50;;;;;;;19.94;53.06;100965.00;5142737;28;20027;-79
2022/09/04 03:39:39;;;;;;;1.98;1.77;;;;;;;19.96;52.96;100964.91;5123683;28;20567;-79
2022/09/04 03:42:27;;;;;;;0.22;0.22;;;;;;;19.94;53.19;100964.16;5157994;28;20106;-79
2022/09/04 03:45:18;;;;;;;0.30;0.30;;;;;;;19.87;53.04;100961.03;5144173;28;20738;-80
2022/09/04 03:47:57;;;;;;;0.73;0.73;;;;;;;19.81;53.20;100956.91;5142535;28;20046;-79
2022/09/04 03:50:59;;;;;;;0.70;0.60;;;;;;;19.75;53.54;100962.63;5150151;28;20030;-79
2022/09/04 03:53:56;;;;;;;0.40;0.40;;;;;;;19.75;53.00;100961.78;5143746;28;20038;-80
2022/09/04 03:56:48;;;;;;;0.85;0.82;;;;;;;19.78;53.01;100961.56;5161653;28;20032;-79
2022/09/04 03:59:25;;;;;;;0.60;0.60;;;;;;;19.74;52.95;100968.03;5132786;28;20093;-79
2022/09/04 04:02:23;;;;;;;1.10;0.90;;;;;;;19.70;52.98;100972.69;5109253;28;20038;-79
2022/09/04 04:05:26;;;;;;;0.55;0.55;;;;;;;19.69;53.01;100978.09;5125104;28;20047;-80
2022/09/04 04:08:18;;;;;;;0.90;0.85;;;;;;;19.66;53.01;100979.16;5112334;28;20078;-80
2022/09/04 04:11:17;;;;;;;0.93;0.93;;;;;;;19.64;53.06;100975.72;5146635;28;20121;-80
2022/09/04 04:14:13;;;;;;;0.73;0.30;;;;;;;19.64;53.11;100981.03;5128517;28;20075;-80
2022/09/04 04:16:59;;;;;;;1.08;0.40;;;;;;;19.59;53.04;100983.13;5168633;28;20039;-80
2022/09/04 04:19:49;;;;;;;0.30;0.30;;;;;;;19.61;53.19;100975.94;5153861;28;20050;-80
2022/09/04 04:22:32;;;;;;;0.88;0.60;;;;;;;19.55;53.33;100989.59;5168212;28;20105;-80
2022/09/04 04:25:30;;;;;;;0.63;0.63;;;;;;;19.54;53.20;100982.56;5174967;28;20025;-81
2022/09/04 04:28:18;;;;;;;0.73;0.73;;;;;;;19.53;53.20;100991.50;5132959;28;20042;-80
2022/09/04 04:30:51;;;;;;;1.58;1.05;;;;;;;19.47;53.44;100995.38;5132768;28;20073;-81
2022/09/04 04:34:03;;;;;;;0.75;0.75;;;;;;;19.45;53.21;101003.47;5149270;28;20082;-80
2022/09/04 04:36:46;;;;;;;0.93;0.93;;;;;;;19.34;53.59;101009.41;5129758;28;20034;-80
2022/09/04 04:39:43;;;;;;;0.63;0.63;;;;;;;19.36;53.58;101004.00;5110465;28;20636;-80
2022/09/04 04:42:19;;;;;;;1.08;1.00;;;;;;;19.32;53.50;101008.66;5144639;28;20122;-81
2022/09/04 04:48:43;;;;;;;1.10;1.10;;;;;;;19.33;53.52;101020.16;5160461;28;20465;-80
2022/09/04 04:51:41;;;;;;;1.83;1.73;;;;;;;19.33;53.46;101023.69;5138392;28;20054;-80
2022/09/04 04:54:18;;;;;;;1.60;1.50;;;;;;;19.31;53.58;101022.03;5148119;28;20089;-80
2022/09/04 04:57:19;;;;;;;1.52;1.42;;;;;;;19.26;53.49;101022.31;5160209;28;20034;-81
2022/09/04 05:00:03;;;;;;;1.52;1.35;;;;;;;19.27;53.62;101029.34;5154546;28;20042;-80
2022/09/04 05:02:40;;;;;;;0.80;0.70;;;;;;;19.22;53.72;101028.78;5138100;28;20047;-80
2022/09/04 05:05:15;;;;;;;0.73;0.68;;;;;;;19.19;53.77;101026.28;5150565;28;20114;-80
2022/09/04 05:08:08;;;;;;;0.20;0.20;;;;;;;19.25;53.86;101030.38;5155034;28;20039;-80
2022/09/04 05:10:44;;;;;;;0.65;0.65;;;;;;;19.19;53.68;101032.47;5123989;28;20035;-80
2022/09/04 05:13:40;;;;;;;1.20;1.02;;;;;;;19.19;53.62;101040.44;5167475;28;20097;-80
2022/09/04 05:16:34;;;;;;;1.35;1.27;;;;;;;19.18;53.73;101043.19;5123889;28;20039;-80
2022/09/04 05:19:23;;;;;;;1.33;1.23;;;;;;;19.14;53.71;101045.16;5145377;28;20035;-80
2022/09/04 05:22:03;;;;;;;0.98;0.95;;;;;;;19.13;53.71;101051.44;5118302;28;20245;-80
2022/09/04 05:24:50;;;;;;;0.60;0.60;;;;;;;19.12;53.80;101062.16;5118807;28;20043;-80
2022/09/04 05:27:40;;;;;;;0.80;0.80;;;;;;;19.11;53.61;101063.97;5127223;28;20563;-80
2022/09/04 05:30:36;;;;;;;1.17;1.17;;;;;;;19.09;53.73;101065.84;5153896;28;20276;-81
2022/09/04 05:33:18;;;;;;;0.98;0.98;;;;;;;19.14;54.13;101071.75;5125402;28;20111;-80
2022/09/04 05:35:54;;;;;;;0.68;0.68;;;;;;;19.11;53.87;101074.63;5104239;28;20407;-80
2022/09/04 05:38:25;;;;;;;1.52;1.42;;;;;;;19.08;54.03;101077.44;5160234;28;20050;-80
2022/09/04 05:41:05;;;;;;;0.52;0.52;;;;;;;19.09;53.86;101078.31;5139464;28;20578;-80
2022/09/04 05:44:13;;;;;;;0.88;0.88;;;;;;;19.08;53.99;101082.75;5137830;28;20049;-81
2022/09/04 05:47:13;;;;;;;1.23;1.13;;;;;;;19.07;54.00;101089.03;5122757;28;20037;-80
2022/09/04 05:50:02;;;;;;;1.98;1.30;;;;;;;19.05;54.03;101101.53;5107049;29;20035;-80
2022/09/04 05:53:16;;;;;;;0.35;0.35;;;;;;;19.07;54.09;101106.78;5133299;28;20054;-80
2022/09/04 05:56:04;;;;;;;0.95;0.95;;;;;;;19.03;54.25;101106.94;5108164;28;20038;-80
2022/09/04 05:58:54;;;;;;;1.60;1.50;;;;;;;19.03;53.89;101101.63;5123380;28;20039;-80
2022/09/04 06:01:50;;;;;;;0.80;0.80;;;;;;;19.02;54.16;101105.22;5143985;28;20035;-80
2022/09/04 06:04:29;;;;;;;0.80;0.77;;;;;;;19.01;54.15;101105.31;5119510;28;20039;-80
2022/09/04 06:07:35;;;;;;;1.55;1.05;;;;;;;18.99;54.29;101102.75;5139499;28;20041;-80
2022/09/04 06:10:42;;;;;;;0.98;0.98;;;;;;;19.00;54.33;101108.94;5139400;28;20039;-80
2022/09/04 06:13:22;;;;;;;1.65;1.10;;;;;;;19.01;54.40;101110.66;5146289;28;20094;-81
2022/09/04 06:16:40;;;;;;;0.98;0.98;;;;;;;19.05;54.26;101114.84;5107158;28;20043;-81
2022/09/04 06:19:36;;;;;;;0.57;0.57;;;;;;;19.09;54.45;101119.03;5136499;28;20045;-80
2022/09/04 06:22:18;;;;;;;1.70;1.17;;;;;;;19.09;54.40;101120.88;5151290;28;20038;-80
2022/09/04 06:24:49;;;;;;;2.10;1.23;;;;;;;19.10;54.68;101127.88;5136069;28;20038;-80
2022/09/04 06:27:19;;;;;;;0.68;0.60;;;;;;;19.06;55.29;101127.19;5137778;28;20051;-81
2022/09/04 06:30:13;;;;;;;0.57;0.57;;;;;;;19.10;55.04;101122.56;5167893;28;20062;-80
2022/09/04 06:32:54;;;;;;;;;;;;;;;19.12;54.76;101128.66;5116014;28;20042;-80
2022/09/04 06:35:50;;;;;;;1.20;0.88;;;;;;;19.10;55.44;101131.41;5166964;28;19924;-80
2022/09/04 06:38:52;;;;;;;0.30;0.30;;;;;;;19.24;54.75;101130.63;5156853;28;20062;-80
2022/09/04 06:41:47;;;;;;;0.50;0.50;;;;;;;19.38;55.52;101137.78;5142101;28;20031;-80
2022/09/04 06:44:36;;;;;;;0.50;0.40;;;;;;;19.54;55.18;101140.44;5137610;28;20047;-80
2022/09/04 06:47:33;;;;;;;1.10;1.00;;;;;;;19.60;55.39;101141.88;5119463;28;20539;-82
2022/09/04 06:50:39;;;;;;;16.67;2.92;;;;;;;19.76;55.35;101140.03;5123101;28;20822;-82
2022/09/04 06:53:29;;;;;;;0.68;0.68;;;;;;;19.89;55.33;101142.84;5136657;28;20493;-81
2022/09/04 06:56:26;;;;;;;0.65;0.65;;;;;;;20.04;55.07;101149.03;5130564;28;20043;-82
2022/09/04 06:59:26;;;;;;;2.25;1.45;;;;;;;20.15;55.12;101144.88;5097690;28;20084;-81
2022/09/04 07:02:09;;;;;;;0.60;0.60;;;;;;;20.23;55.13;101146.16;5136373;28;20035;-81
2022/09/04 07:05:16;;;;;;;0.70;0.70;;;;;;;20.34;54.87;101152.59;5107812;28;20063;-79
2022/09/04 07:08:08;;;;;;;1.17;0.47;;;;;;;20.41;54.84;101159.28;5106486;28;20154;-80
2022/09/04 07:10:52;;;;;;;0.32;0.32;;;;;;;20.41;54.71;101162.81;5132663;28;20165;-81
2022/09/04 07:13:34;;;;;;;0.60;0.60;;;;;;;20.42;54.56;101163.66;5175496;28;20078;-82
2022/09/04 07:16:19;;;;;;;0.40;0.40;;;;;;;20.42;54.62;101163.66;5141805;28;20058;-82
2022/09/04 07:19:06;;;;;;;1.02;0.98;;;;;;;20.36;55.90;101164.91;5163263;28;20085;-82
2022/09/04 07:22:08;;;;;;;0.40;0.30;;;;;;;20.37;56.17;101168.41;5159655;28;20092;-80
2022/09/04 07:25:09;;;;;;;0.40;0.40;;;;;;;20.40;55.27;101166.41;5147457;28;20279;-81
2022/09/04 07:28:09;;;;;;;0.63;0.63;;;;;;;20.39;55.33;101164.69;5116047;28;20091;-80
2022/09/04 07:31:08;;;;;;;0.60;0.60;;;;;;;20.34;57.49;101174.78;5168944;28;20031;-81
2022/09/04 07:34:21;;;;;;;1.25;0.80;;;;;;;20.38;55.81;101176.31;5152904;28;20031;-81
2022/09/04 07:37:00;;;;;;;0.50;0.50;;;;;;;20.38;56.60;101176.31;5115196;28;20042;-81
2022/09/04 07:40:03;;;;;;;0.45;0.45;;;;;;;20.40;55.99;101177.06;5121169;28;20117;-82
2022/09/04 07:42:58;;;;;;;0.25;0.25;;;;;;;20.38;56.55;101180.78;5144465;28;20123;-81
2022/09/04 07:45:49;;;;;;;0.63;0.63;;;;;;;20.43;55.98;101184.00;5180743;28;20038;-80
2022/09/04 07:48:42;;;;;;;0.77;0.47;;;;;;;20.42;59.33;101182.31;5164421;28;20154;-81
2022/09/04 07:51:20;;;;;;;0.82;0.80;;;;;;;20.41;57.91;101189.44;5121104;28;20215;-81
2022/09/04 07:54:22;;;;;;;1.17;0.90;;;;;;;20.47;57.21;101187.34;5166488;28;20479;-81
2022/09/04 07:57:02;;;;;;;;;;;;;;;20.47;56.93;101187.34;5157510;28;20039;-81
2022/09/04 08:00:00;;;;;;;0.45;0.45;;;;;;;20.47;57.25;101187.34;5124708;28;20025;-81
2022/09/04 08:02:33;;;;;;;1.20;0.98;;;;;;;20.48;58.33;101187.28;5123838;28;20070;-80
2022/09/04 08:05:27;;;;;;;1.75;0.43;;;;;;;20.51;58.73;101194.22;5120257;28;20381;-81
2022/09/04 08:08:40;;;;;;;0.60;0.60;;;;;;;20.53;57.63;101193.16;5145778;28;20038;-81
2022/09/04 08:11:40;;;;;;;0.47;0.47;;;;;;;20.56;59.24;101200.13;5133038;28;20077;-81
2022/09/04 08:14:22;;;;;;;0.40;0.40;;;;;;;20.61;59.39;101198.03;5085075;29;20110;-81
2022/09/04 08:17:32;;;;;;;0.68;0.68;;;;;;;20.70;58.46;101200.09;5143867;28;20549;-80
2022/09/04 08:20:24;;;;;;;0.60;0.60;;;;;;;20.72;58.30;101203.53;5153094;28;20041;-80
2022/09/04 08:23:00;;;;;;;0.30;0.30;;;;;;;20.76;57.86;101206.91;5134319;28;20054;-80
2022/09/04 08:25:55;;;;;;;0.35;0.35;;;;;;;20.81;61.76;101211.94;5155356;28;20039;-81
2022/09/04 08:29:03;;;;;;;0.35;0.35;;;;;;;20.80;60.24;101207.56;5175034;28;20061;-80
2022/09/04 08:32:03;;;;;;;2.25;0.75;;;;;;;20.82;61.31;101213.66;5143719;28;20107;-80
2022/09/04 08:34:49;;;;;;;0.30;0.30;;;;;;;20.81;59.04;101209.28;5104222;29;20496;-80
2022/09/04 08:37:41;;;;;;;0.20;0.20;;;;;;;20.88;58.49;101207.94;5106698;28;20051;-80
2022/09/04 08:40:29;;;;;;;0.22;0.22;;;;;;;20.88;59.48;101215.94;5155456;28;20098;-80
2022/09/04 08:43:43;;;;;;;0.30;0.30;;;;;;;20.88;60.97;101215.94;5123243;28;20043;-80
2022/09/04 08:46:47;;;;;;;2.38;1.17;;;;;;;20.90;61.17;101219.38;5093347;28;20039;-80
2022/09/04 08:49:52;;;;;;;0.35;0.35;;;;;;;20.98;59.42;101218.91;5155127;28;20055;-80
2022/09/04 08:52:54;;;;;;;0.40;0.40;;;;;;;21.03;58.97;101214.97;5145394;28;20055;-80
2022/09/04 08:55:57;;;;;;;1.90;0.57;;;;;;;21.12;60.20;101216.22;5134025;28;20035;-80
2022/09/04 08:58:51;;;;;;;2.05;0.85;;;;;;;21.23;60.39;101215.53;5139628;28;20042;-81
2022/09/04 09:02:09;;;;;;;0.30;0.30;;;;;;;21.25;60.42;101229.63;5158205;28;20066;-80
2022/09/04 09:04:53;;;;;;;0.30;0.30;;;;;;;21.23;59.33;101223.53;5104471;28;20032;-80
2022/09/04 09:07:30;;;;;;;0.20;0.20;;;;;;;21.22;60.60;101224.47;5100442;29;20067;-80
2022/09/04 09:10:25;;;;;;;0.38;0.38;;;;;;;21.27;59.90;101233.06;5079349;29;20043;-80
2022/09/04 09:13:20;;;;;;;0.20;0.20;;;;;;;21.36;59.33;101227.09;5143034;28;20047;-79
2022/09/04 09:16:11;;;;;;;0.30;0.30;;;;;;;21.33;59.10;101223.78;5158217;28;20026;-80
2022/09/04 09:19:09;;;;;;;0.30;0.30;;;;;;;21.38;58.35;101227.88;5183690;28;20043;-79
2022/09/04 09:21:44;;;;;;;0.30;0.30;;;;;;;21.44;58.16;101229.28;5144228;28;20649;-81
2022/09/04 09:24:46;;;;;;;1.38;1.08;;;;;;;21.61;58.91;101225.53;5135285;28;20054;-80
2022/09/04 09:27:19;;;;;;;0.40;0.40;;;;;;;21.56;58.90;101226.78;5106991;28;20057;-80
2022/09/04 09:30:11;;;;;;;0.30;0.30;;;;;;;21.65;57.52;101221.72;5164961;28;20035;-80
2022/09/04 09:33:13;;;;;;;0.30;0.30;;;;;;;21.64;57.83;101221.81;5161201;28;20082;-80
2022/09/04 09:36:14;;;;;;;0.30;0.30;;;;;;;21.70;58.55;101221.41;5126264;28;20042;-81
2022/09/04 09:39:13;;;;;;;0.20;0.20;;;;;;;21.76;58.07;101217.50;5159910;28;20042;-80
2022/09/04 09:41:52;;;;;;;0.47;0.47;;;;;;;21.76;57.59;101213.00;5109410;28;20069;-80
2022/09/04 09:45:00;;;;;;;0.50;0.50;;;;;;;21.90;57.60;101212.06;5171609;28;20022;-80
2022/09/04 09:47:46;;;;;;;0.20;0.20;;;;;;;22.00;57.73;101213.16;5145538;28;20097;-80
2022/09/04 09:50:19;;;;;;;0.30;0.30;;;;;;;22.08;58.10;101214.47;5147661;28;20035;-80
2022/09/04 09:52:59;;;;;;;0.20;0.20;;;;;;;22.19;57.58;101209.22;5151450;28;20066;-80
2022/09/04 09:55:48;;;;;;;1.38;0.90;;;;;;;22.10;58.15;101210.72;5164942;28;20018;-80
2022/09/04 09:58:51;;;;;;;0.40;0.30;;;;;;;22.20;58.00;101208.25;5126196;28;20115;-80
2022/09/04 10:01:24;;;;;;;0.20;0.20;;;;;;;22.25;57.35;101218.63;5157682;28;20041;-80
2022/09/04 10:04:14;;;;;;;0.30;0.30;;;;;;;22.36;57.31;101209.88;5158272;28;20038;-81
2022/09/04 10:07:18;;;;;;;0.30;0.30;;;;;;;22.38;57.24;101214.16;5121690;28;20023;-80
2022/09/04 10:10:28;;;;;;;0.50;0.50;;;;;;;22.41;56.97;101211.28;5117818;28;20183;-80
2022/09/04 10:13:23;;;;;;;0.65;0.65;;;;;;;22.50;56.63;101211.63;5118312;28;20101;-80
2022/09/04 10:16:18;;;;;;;0.30;0.30;;;;;;;22.57;56.67;101213.78;5150840;28;20408;-80
2022/09/04 10:19:10;;;;;;;0.20;0.20;;;;;;;22.62;56.76;101213.44;5152188;28;20075;-80
2022/09/04 10:22:12;;;;;;;0.25;0.25;;;;;;;22.79;55.98;101206.88;5171003;28;20118;-80
2022/09/04 10:24:56;;;;;;;0.95;0.93;;;;;;;22.77;56.24;101214.16;5118569;28;20043;-80
2022/09/04 10:28:04;;;;;;;0.13;0.13;;;;;;;22.88;56.21;101211.59;5116965;28;20054;-80
2022/09/04 10:30:41;;;;;;;0.60;0.43;;;;;;;22.91;55.91;101216.72;5130783;28;20050;-80
2022/09/04 10:33:37;;;;;;;0.20;0.20;;;;;;;23.03;55.70;101206.97;5119938;28;20053;-80
2022/09/04 10:36:29;;;;;;;0.22;0.22;;;;;;;23.11;55.26;101211.75;5136303;28;20094;-79
2022/09/04 10:42:50;;;;;;;0.63;0.45;;;;;;;23.31;55.11;101204.13;5116365;28;20066;-80
2022/09/04 10:45:45;;;;;;;0.40;0.40;;;;;;;23.48;54.28;101209.09;5134450;28;20771;-81
2022/09/04 10:48:38;;;;;;;0.25;0.25;;;;;;;23.60;53.82;101206.44;5128951;28;20123;-80
2022/09/04 10:51:35;;;;;;;0.20;0.20;;;;;;;23.62;52.66;101200.03;5116520;28;20039;-82
2022/09/04 10:54:29;;;;;;;0.30;0.30;;;;;;;23.77;52.31;101203.34;5120014;28;20074;-81
2022/09/04 10:57:12;;;;;;;0.30;0.30;;;;;;;23.75;52.62;101205.31;5137458;28;20035;-81
2022/09/04 11:00:12;;;;;;;0.17;0.17;;;;;;;23.79;53.06;101206.78;5153317;28;20033;-82
2022/09/04 11:03:13;;;;;;;0.30;0.30;;;;;;;23.88;51.60;101205.25;5149806;28;20079;-79
2022/09/04 11:06:12;;;;;;;0.30;0.30;;;;;;;23.98;51.85;101208.09;5148890;28;20035;-79
2022/09/04 11:09:38;;;;;;;0.30;0.30;;;;;;;24.07;50.74;101211.88;5164798;28;20051;-79
2022/09/04 11:12:30;;;;;;;0.68;0.65;;;;;;;24.07;51.95;101204.72;5142754;28;20113;-79
2022/09/04 11:15:06;;;;;;;0.30;0.30;;;;;;;24.20;51.79;101194.75;5124429;28;20026;-79
2022/09/04 11:18:05;;;;;;;0.60;0.60;;;;;;;24.30;51.17;101199.41;5146853;28;20106;-81
2022/09/04 11:21:26;;;;;;;0.40;0.40;;;;;;;24.56;49.25;101200.03;5113702;28;20748;-81
2022/09/04 11:24:19;;;;;;;0.30;0.30;;;;;;;24.49;49.95;101199.69;5146880;28;20045;-81
2022/09/04 11:27:00;;;;;;;0.32;0.32;;;;;;;24.51;50.48;101196.88;5127550;28;20111;-81
2022/09/04 11:29:54;;;;;;;0.20;0.20;;;;;;;24.61;48.96;101196.97;5159118;28;20078;-82
2022/09/04 11:32:39;;;;;;;0.28;0.28;;;;;;;24.60;50.22;101195.28;5147187;28;20133;-82
2022/09/04 11:35:41;;;;;;;0.20;0.20;;;;;;;24.69;48.22;101199.94;5143702;28;20026;-81
2022/09/04 11:38:23;;;;;;;0.95;0.95;;;;;;;24.91;48.05;101192.88;5163900;28;20154;-81
2022/09/04 11:40:57;;;;;;;0.20;0.20;;;;;;;24.88;48.09;101193.09;5143508;28;20122;-80
2022/09/04 11:43:49;;;;;;;0.30;0.30;;;;;;;25.05;47.14;101195.28;5125151;28;20070;-81
2022/09/04 11:46:30;;;;;;;0.30;0.30;;;;;;;25.01;48.35;101191.13;5151646;28;20064;-80
2022/09/04 11:49:25;;;;;;;0.30;0.30;;;;;;;25.09;47.17;101199.41;5155823;28;20639;-80
2022/09/04 11:52:11;;;;;;;0.17;0.17;;;;;;;25.10;46.88;101198.44;5108692;28;20030;-82
2022/09/04 11:55:01;;;;;;;0.20;0.20;;;;;;;25.11;47.65;101197.47;5159896;28;20633;-81
2022/09/04 11:58:08;;;;;;;0.20;0.20;;;;;;;25.19;47.53;101196.84;5130732;28;20105;-81
2022/09/04 12:01:02;;;;;;;0.20;0.20;;;;;;;25.30;44.33;101194.13;5148195;28;20354;-82
2022/09/04 12:03:58;;;;;;;0.30;0.30;;;;;;;25.28;45.39;101195.22;5116149;28;20050;-81
2022/09/04 12:06:53;;;;;;;0.50;0.45;;;;;;;25.36;45.17;101205.34;5127882;28;20462;-82
2022/09/04 12:09:39;;;;;;;0.20;0.20;;;;;;;25.45;43.79;101192.03;5118106;29;20046;-82
2022/09/04 12:12:23;;;;;;;0.10;0.10;;;;;;;25.43;44.40;101202.03;5140288;28;20137;-80
2022/09/04 12:15:11;;;;;;;0.20;0.20;;;;;;;25.49;43.47;101202.53;5123037;28;20086;-81
2022/09/04 12:18:13;;;;;;;0.28;0.28;;;;;;;25.44;44.27;101206.44;5153803;28;20046;-82
2022/09/04 12:21:02;;;;;;;0.30;0.30;;;;;;;25.47;42.65;101207.16;5128619;28;20035;-80
2022/09/04 12:23:57;;;;;;;0.30;0.30;;;;;;;25.38;42.79;101206.91;5183695;28;20046;-80
2022/09/04 12:27:05;;;;;;;0.20;0.20;;;;;;;25.45;43.95;101213.53;5153202;28;20039;-83
2022/09/04 12:29:53;;;;;;;0.30;0.30;;;;;;;25.44;42.84;101209.13;5159951;28;20070;-81
2022/09/04 12:32:43;;;;;;;0.30;0.30;;;;;;;25.42;40.37;101205.72;5143831;28;20042;-82
2022/09/04 12:35:41;;;;;;;0.20;0.20;;;;;;;25.53;40.91;101204.84;5128827;28;20043;-81
2022/09/04 12:38:46;;;;;;;0.40;0.40;;;;;;;25.73;39.33;101207.66;5127729;28;20043;-81
2022/09/04 12:41:21;;;;;;;0.20;0.20;;;;;;;25.60;40.76;101210.53;5152434;28;20151;-81
2022/09/04 12:44:02;;;;;;;1.52;0.77;;;;;;;25.60;41.08;101200.66;5130504;28;20100;-81
2022/09/04 12:47:00;;;;;;;0.70;0.70;;;;;;;25.70;39.30;101203.41;5144467;28;20034;-81
2022/09/04 12:49:58;;;;;;;0.35;0.35;;;;;;;25.82;41.52;101196.16;5098571;29;20412;-81
2022/09/04 12:52:39;;;;;;;0.47;0.47;;;;;;;26.19;37.22;101197.56;5117565;28;20392;-80
2022/09/04 12:55:23;;;;;;;0.30;0.30;;;;;;;26.01;38.58;101208.03;5124890;28;20035;-81
2022/09/04 12:58:05;;;;;;;0.22;0.22;;;;;;;26.02;38.98;101205.22;5112491;28;20051;-83
2022/09/04 13:01:12;;;;;;;0.50;0.50;;;;;;;26.07;37.43;101205.66;5111238;28;20038;-80
2022/09/04 13:03:53;;;;;;;2.58;0.98;;;;;;;26.12;37.93;101197.22;5097014;29;20038;-81
2022/09/04 13:06:52;;;;;;;0.75;0.75;;;;;;;26.14;39.48;101211.41;5128448;28;20087;-81
2022/09/04 13:09:47;;;;;;;0.45;0.40;;;;;;;26.25;38.98;101202.41;5103932;29;20522;-80
2022/09/04 13:12:35;;;;;;;0.30;0.30;;;;;;;26.16;38.89;101195.13;5134458;28;20043;-80
2022/09/04 13:15:48;;;;;;;0.30;0.30;;;;;;;26.20;39.61;101199.28;5159584;28;20383;-81
2022/09/04 13:18:20;;;;;;;0.30;0.30;;;;;;;26.23;37.84;101193.63;5094521;28;20043;-81
2022/09/04 13:21:32;;;;;;;0.30;0.30;;;;;;;26.24;39.45;101214.16;5108999;28;20035;-82